CheckWX is a tool to help pilots better visualize weather data.  It is not intended as a substitute for an official pre-flight weather briefing.

04:51:09 UTC

UAAA TAF
Almaty Airport
Almaty, Kazakhstan
TAF UAAA 252300Z 2600/2624 04004MPS 9999 SCT050CB SCT100 TX31/2609Z TN13/2601Z TEMPO 2600/2603 20003MPS BECMG 2614/2615 18003MPS TEMPO 2614/2622 5000 FU

Aug-26@
00:00 UTC

Aug-26 @ 00:00 UTC

Aug-26@
14:00 UTC

Aug-26 @ 14:00 UTC

TAF UAAA 252300Z 2600/2624 04004MPS 9999 SCT050CB SCT100 TX31/2609Z TN13/2601Z
Wind
  • 040° at 8 KTS
Cloud Levels
  • Scattered at 5,000' AGL
  • Scattered at 10,000' AGL

Aug-26@
00:00 UTC

Aug-26 @ 00:00 UTC

Aug-26@
03:00 UTC

Aug-26 @ 03:00 UTC

TEMPO 2600/2603 20003MPS

Expired

Wind
  • 200° at 6 KTS

Aug-26@
14:00 UTC

Aug-26 @ 14:00 UTC

Aug-26@
22:00 UTC

Aug-26 @ 22:00 UTC

TEMPO 2614/2622 5000 FU

Temporary

Temporary Changes expected for less than half the time period

Conditions
Smoke

Aug-26@
14:00 UTC

Aug-26 @ 14:00 UTC

Aug-27@
00:00 UTC

Aug-27 @ 00:00 UTC

BECMG 2614/2615 18003MPS

Becoming

Becoming Conditions expected by Mon, Aug 26, 2019 @ 15:00 UTC

Wind
  • 180° at 6 KTS
Cloud Levels
  • Scattered at 5,000' AGL
  • Scattered at 10,000' AGL